Main page
METAR-TAF:

METAR-TAF

Airports :

Cambridge Airport

Cambridge, England

latitude: 52-12N, longitude: 000-11E, elevation: 15 m

Current weather observation

The report was made 9 hours and 1 minutes ago, at 17:20 UTC
Wind 9 kt from the South/Southwest
Temperature 11°C
Humidity 76%
Pressure 1021 hPa
Visibility 10 km or more
no clouds below 1500 m and no cumulonimbus

METAR: EGSC 201720Z 21009KT CAVOK 11/07 Q1021

Time: 02:21 (02:21 UTC)

Forecast

The report was made 12 hours and 22 minutes ago, at 13:59 UTC
Forecast valid from 20 at 15 UTC to 20 at 18 UTC
Wind 10 kt from the Southwest
Visibility 10 km or more
Scattered clouds at a height of 2000 ft
Probability 30% :
Temporary
from 20 at 15 UTC to 20 at 18 UTC
Broken clouds at a height of 1400 ft
Probability 30% :
Temporary
from 20 at 15 UTC to 20 at 16 UTC
Wind 15 kt from the Southwest with gusts up to 25 kt

TAF: EGSC 201359Z 2015/2018 22010KT 9999 SCT020 PROB30 TEMPO 2015/2018 BKN014 PROB30 TEMPO 2015/2016 23015G25KT

Weather observations and forecasts of more than 4000 airports (METAR and TAF reports).

The available stations are represented by yellow and red dots on the map.

Hover mouse over dot to see the name of the station.

Then click to see weather observations and forecasts.

To change the map : click on the green buttons with a black cross to zoom in, on the green button with a dash to zoom out, or on the green arrows for adjacent maps.


METAR-TAF: